Terminal Aerodrome Forecast
Issued by NWS Norman, OK

Home | Current Version | Previous Version | Text Only | Print | Product List | Glossary On
Versions: 1 2 3 4 5 6 7 8 9 10 11 12 13 14 15 16 17 18 19 20 21 22 23
000
FTUS44 KOUN 041720
TAFOKC
TAF
KOKC 041720Z 0418/0518 17013KT P6SM SCT070 BKN100
     FM050200 18006KT P6SM FEW120 SCT250
     FM051200 19010KT P6SM SCT120 BKN250=

USA.gov is the U.S. government's official web portal to all federal, state and local government web resources and services.